createdAt,value
2023-04-29T00:01:03.580Z,98193.78
2023-04-29T00:03:32.509Z,98192.56
2023-04-29T00:06:00.157Z,98190.13
2023-04-29T00:08:27.015Z,98198.84
2023-04-29T00:10:53.524Z,98189.53
2023-04-29T00:13:20.035Z,98198.28
2023-04-29T00:15:46.514Z,98196.06
2023-04-29T00:18:14.078Z,98198.47
2023-04-29T00:20:40.621Z,98193.59
2023-04-29T00:23:07.689Z,98189.34
2023-04-29T00:25:34.215Z,98189.34
2023-04-29T00:28:02.172Z,98189.34
2023-04-29T00:30:29.100Z,98186.88
2023-04-29T00:32:55.743Z,98187.94
2023-04-29T00:35:22.382Z,98191.16
2023-04-29T00:37:49.403Z,98189.53
2023-04-29T00:40:17.358Z,98189.94
2023-04-29T00:42:43.894Z,98184.47
2023-04-29T00:45:13.834Z,98184.69
2023-04-29T00:47:40.375Z,98188.09
2023-04-29T00:50:07.896Z,98183.03
2023-04-29T00:52:35.224Z,98198.00
2023-04-29T00:55:02.662Z,98193.06
2023-04-29T00:57:30.092Z,98202.34
2023-04-29T00:59:58.415Z,98204.00
2023-04-29T01:02:26.610Z,98195.88
2023-04-29T01:04:53.183Z,98208.69
2023-04-29T01:07:34.511Z,98203.53
2023-04-29T01:10:10.655Z,98216.31
2023-04-29T01:12:37.106Z,98209.59
2023-04-29T01:15:09.034Z,98212.25
2023-04-29T01:17:47.630Z,98214.75
2023-04-29T01:20:15.456Z,98210.34
2023-04-29T01:22:42.442Z,98214.41
2023-04-29T01:25:09.974Z,98216.69
2023-04-29T01:28:24.245Z,98224.00
2023-04-29T01:31:11.264Z,98223.59
2023-04-29T01:33:42.874Z,98218.72
2023-04-29T01:36:19.570Z,98227.66
2023-04-29T01:38:58.087Z,98228.81
2023-04-29T01:41:49.287Z,98223.28
2023-04-29T01:44:27.259Z,98225.50
2023-04-29T01:46:54.413Z,98223.44
2023-04-29T01:49:27.905Z,98216.50
2023-04-29T01:51:55.868Z,98219.31
2023-04-29T01:54:22.854Z,98212.06
2023-04-29T01:56:49.614Z,98223.22
2023-04-29T01:59:23.603Z,98215.03
2023-04-29T02:02:05.555Z,98223.78
2023-04-29T02:04:34.434Z,98231.13
2023-04-29T02:07:03.252Z,98229.63
2023-04-29T02:09:30.304Z,98230.81
2023-04-29T02:12:05.727Z,98235.25
2023-04-29T02:14:35.042Z,98236.56
2023-04-29T02:17:03.610Z,98236.16
2023-04-29T02:19:30.544Z,98241.56
2023-04-29T02:21:57.147Z,98232.69
2023-04-29T02:24:25.645Z,98238.81
2023-04-29T02:26:52.158Z,98246.19
2023-04-29T02:29:19.023Z,98240.66
2023-04-29T02:31:45.608Z,98245.53
2023-04-29T02:34:12.142Z,98240.56
2023-04-29T02:36:38.624Z,98244.78
2023-04-29T02:39:05.288Z,98248.16
2023-04-29T02:41:31.721Z,98245.97
2023-04-29T02:43:58.173Z,98243.22
2023-04-29T02:46:24.851Z,98249.81
2023-04-29T02:48:52.891Z,98245.19
2023-04-29T02:51:20.080Z,98244.09
2023-04-29T02:53:46.836Z,98241.53
2023-04-29T02:56:13.273Z,98249.28
2023-04-29T02:58:39.839Z,98246.28
2023-04-29T03:01:07.125Z,98247.72
2023-04-29T03:03:33.744Z,98243.69
2023-04-29T03:06:00.349Z,98244.44
2023-04-29T03:08:27.970Z,98242.06
2023-04-29T03:10:54.465Z,98239.34
2023-04-29T03:13:20.999Z,98248.03
2023-04-29T03:15:47.612Z,98245.00
2023-04-29T03:18:14.563Z,98247.16
2023-04-29T03:20:41.037Z,98258.72
2023-04-29T03:23:07.475Z,98256.16
2023-04-29T03:25:33.931Z,98258.88
2023-04-29T03:28:00.378Z,98265.38
2023-04-29T03:30:26.945Z,98252.88
2023-04-29T03:32:56.723Z,98261.31
2023-04-29T03:35:23.660Z,98261.94
2023-04-29T03:38:16.134Z,98257.44
2023-04-29T03:40:44.931Z,98261.81
2023-04-29T03:43:12.455Z,98269.97
2023-04-29T03:45:39.109Z,98261.94
2023-04-29T03:48:06.504Z,98268.00
2023-04-29T03:50:33.125Z,98282.06
2023-04-29T03:52:59.687Z,98275.34
2023-04-29T03:55:29.437Z,98281.44
2023-04-29T03:57:55.867Z,98274.53
2023-04-29T04:00:22.522Z,98276.88
2023-04-29T04:02:54.193Z,98274.59
2023-04-29T04:05:21.481Z,98277.59
2023-04-29T04:07:53.217Z,98281.75
2023-04-29T04:10:31.858Z,98272.66
2023-04-29T04:13:00.654Z,98281.69
2023-04-29T04:15:27.113Z,98288.44
2023-04-29T04:17:53.855Z,98287.56
2023-04-29T04:20:20.515Z,98286.31
2023-04-29T04:22:49.113Z,98292.38
2023-04-29T04:25:20.501Z,98297.84
2023-04-29T04:27:47.077Z,98296.72
2023-04-29T04:30:23.429Z,98293.78
2023-04-29T04:32:49.929Z,98298.41
2023-04-29T04:35:16.754Z,98309.38
2023-04-29T04:37:43.290Z,98309.31
2023-04-29T04:40:11.944Z,98311.66
2023-04-29T04:42:55.283Z,98318.84
2023-04-29T04:45:22.641Z,98326.22
2023-04-29T04:47:50.835Z,98329.94
2023-04-29T04:50:21.340Z,98326.38
2023-04-29T04:52:50.653Z,98328.44
2023-04-29T04:55:37.089Z,98332.44
2023-04-29T04:58:03.739Z,98329.94
2023-04-29T05:00:30.376Z,98330.19
2023-04-29T05:02:57.313Z,98337.91
2023-04-29T05:05:24.178Z,98347.00
2023-04-29T05:07:51.319Z,98342.84
2023-04-29T05:10:26.372Z,98350.97
2023-04-29T05:12:54.883Z,98359.56
2023-04-29T05:15:21.643Z,98353.56
2023-04-29T05:17:51.086Z,98349.06
2023-04-29T05:20:17.718Z,98351.41
2023-04-29T05:22:44.177Z,98360.38
2023-04-29T05:25:10.755Z,98359.78
2023-04-29T05:27:37.204Z,98360.94
2023-04-29T05:30:07.339Z,98367.28
2023-04-29T05:32:34.141Z,98368.09
2023-04-29T05:35:00.906Z,98372.84
2023-04-29T05:37:30.899Z,98362.31
2023-04-29T05:40:13.821Z,98365.63
2023-04-29T05:42:46.482Z,98367.75
2023-04-29T05:45:13.102Z,98365.72
2023-04-29T05:47:39.643Z,98369.66
2023-04-29T05:50:06.787Z,98375.63
2023-04-29T05:52:33.228Z,98370.53
2023-04-29T05:54:59.742Z,98369.97
2023-04-29T05:57:26.194Z,98367.03
2023-04-29T05:59:55.291Z,98371.22
2023-04-29T06:02:22.270Z,98368.81
2023-04-29T06:04:49.281Z,98376.34
2023-04-29T06:07:27.951Z,98372.38
2023-04-29T06:09:59.030Z,98380.53
2023-04-29T06:12:26.531Z,98383.72
2023-04-29T06:14:53.152Z,98380.13
2023-04-29T06:17:20.401Z,98381.66
2023-04-29T06:19:46.896Z,98388.06
2023-04-29T06:22:13.378Z,98389.25
2023-04-29T06:24:47.323Z,98378.72
2023-04-29T06:27:18.894Z,98385.22
2023-04-29T06:29:45.645Z,98386.13
2023-04-29T06:32:13.940Z,98381.16
2023-04-29T06:34:40.750Z,98391.94
2023-04-29T06:37:23.424Z,98400.31
2023-04-29T06:39:56.996Z,98404.63
2023-04-29T06:42:41.611Z,98402.34
2023-04-29T06:45:31.916Z,98403.50
2023-04-29T06:48:22.245Z,98403.47
2023-04-29T06:50:58.524Z,98408.69
2023-04-29T06:53:25.008Z,98403.91
2023-04-29T06:55:51.843Z,98410.41
2023-04-29T06:58:20.366Z,98415.94
2023-04-29T07:00:48.703Z,98417.59
2023-04-29T07:03:16.033Z,98418.59
2023-04-29T07:05:45.308Z,98418.03
2023-04-29T07:08:12.973Z,98426.22
2023-04-29T07:10:39.606Z,98424.13
2023-04-29T07:13:06.065Z,98431.88
2023-04-29T07:15:36.859Z,98436.81
2023-04-29T07:18:05.299Z,98437.75
2023-04-29T07:20:32.428Z,98442.78
2023-04-29T07:22:59.316Z,98444.47
2023-04-29T07:25:29.481Z,98441.44
2023-04-29T07:27:56.610Z,98446.38
2023-04-29T07:30:25.142Z,98461.88
2023-04-29T07:32:51.853Z,98460.16
2023-04-29T07:35:18.943Z,98465.38
2023-04-29T07:37:45.865Z,98464.44
2023-04-29T07:40:13.073Z,98467.94
2023-04-29T07:42:39.603Z,98468.97
2023-04-29T07:45:07.861Z,98477.53
2023-04-29T07:47:34.435Z,98483.06
2023-04-29T07:50:01.271Z,98489.19
2023-04-29T07:52:27.845Z,98490.22
2023-04-29T07:54:56.176Z,98492.66
2023-04-29T07:57:22.997Z,98494.13
2023-04-29T07:59:55.560Z,98497.38
2023-04-29T08:02:22.150Z,98501.03
2023-04-29T08:04:51.297Z,98504.06
2023-04-29T08:07:18.156Z,98504.28
2023-04-29T08:09:44.675Z,98511.63
2023-04-29T08:12:11.101Z,98515.88
2023-04-29T08:14:40.274Z,98514.25
2023-04-29T08:17:07.423Z,98516.91
2023-04-29T08:19:33.980Z,98519.34
2023-04-29T08:22:01.152Z,98520.34
2023-04-29T08:24:29.029Z,98526.06
2023-04-29T08:26:55.487Z,98523.41
2023-04-29T08:29:21.955Z,98522.81
2023-04-29T08:31:48.497Z,98532.16
2023-04-29T08:34:15.048Z,98528.72
2023-04-29T08:36:41.545Z,98531.97
2023-04-29T08:39:08.851Z,98535.84
2023-04-29T08:41:39.968Z,98541.53
2023-04-29T08:44:06.952Z,98546.44
2023-04-29T08:46:33.799Z,98551.72
2023-04-29T08:49:03.810Z,98540.91
2023-04-29T08:51:32.244Z,98545.81
2023-04-29T08:53:58.792Z,98538.69
2023-04-29T08:56:27.854Z,98550.06
2023-04-29T08:58:58.298Z,98553.16
2023-04-29T09:01:28.750Z,98561.69
2023-04-29T09:04:10.256Z,98564.34
2023-04-29T09:06:36.909Z,98560.84
2023-04-29T09:09:03.815Z,98571.84
2023-04-29T09:11:30.459Z,98568.19
2023-04-29T09:14:04.493Z,98573.50
2023-04-29T09:16:31.230Z,98577.13
2023-04-29T09:18:58.102Z,98581.22
2023-04-29T09:21:29.525Z,98588.13
2023-04-29T09:23:57.964Z,98580.56
2023-04-29T09:26:25.049Z,98588.09
2023-04-29T09:29:06.522Z,98587.28
2023-04-29T09:31:33.429Z,98593.56
2023-04-29T09:33:59.937Z,98591.78
2023-04-29T09:36:49.634Z,98599.50
2023-04-29T09:39:20.958Z,98595.44
2023-04-29T09:41:50.560Z,98602.78
2023-04-29T09:44:17.146Z,98606.03
2023-04-29T09:46:43.937Z,98602.16
2023-04-29T09:49:32.724Z,98598.72
2023-04-29T09:52:01.392Z,98601.78
2023-04-29T09:54:29.813Z,98608.72
2023-04-29T09:56:58.491Z,98606.31
2023-04-29T09:59:25.593Z,98601.59
2023-04-29T10:01:54.481Z,98601.81
2023-04-29T10:04:22.725Z,98608.31
2023-04-29T10:06:51.417Z,98610.56
2023-04-29T10:09:19.502Z,98609.75
2023-04-29T10:11:48.090Z,98614.25
2023-04-29T10:14:22.442Z,98615.47
2023-04-29T10:16:54.484Z,98616.28
2023-04-29T10:19:27.614Z,98612.41
2023-04-29T10:21:57.714Z,98607.31
2023-04-29T10:24:25.815Z,98608.34
2023-04-29T10:26:56.110Z,98609.34
2023-04-29T10:29:25.397Z,98604.66
2023-04-29T10:31:53.165Z,98606.31
2023-04-29T10:34:20.580Z,98600.78
2023-04-29T10:36:47.411Z,98596.72
2023-04-29T10:39:26.328Z,98599.38
2023-04-29T10:41:53.888Z,98600.78
2023-04-29T10:44:20.339Z,98595.66
2023-04-29T10:46:46.856Z,98600.13
2023-04-29T10:49:13.350Z,98594.59
2023-04-29T10:51:45.018Z,98599.66
2023-04-29T10:54:16.629Z,98594.31
2023-04-29T10:56:50.953Z,98587.81
2023-04-29T10:59:22.099Z,98591.75
2023-04-29T11:01:55.211Z,98592.94
2023-04-29T11:04:22.949Z,98588.34
2023-04-29T11:06:55.317Z,98587.63
2023-04-29T11:09:30.664Z,98588.03
2023-04-29T11:12:05.348Z,98583.47
2023-04-29T11:14:51.255Z,98589.03
2023-04-29T11:17:23.285Z,98588.84
2023-04-29T11:19:51.648Z,98588.22
2023-04-29T11:22:37.751Z,98593.97
2023-04-29T11:25:19.023Z,98590.22
2023-04-29T11:33:41.793Z,98593.44
2023-04-29T11:36:17.364Z,98602.56
2023-04-29T11:38:59.428Z,98609.28
2023-04-29T11:41:33.969Z,98606.22
2023-04-29T11:44:11.012Z,98598.59
2023-04-29T11:46:47.947Z,98602.81
2023-04-29T11:49:16.910Z,98600.03
2023-04-29T11:51:43.409Z,98598.47
2023-04-29T11:54:09.916Z,98604.00
2023-04-29T11:56:38.217Z,98603.78
2023-04-29T11:59:08.031Z,98604.59
2023-04-29T12:01:35.890Z,98610.50
2023-04-29T12:04:03.294Z,98618.91
2023-04-29T12:06:30.637Z,98617.03
2023-04-29T12:09:01.742Z,98614.63
2023-04-29T12:11:28.850Z,98615.16
2023-04-29T12:13:56.692Z,98623.34
2023-04-29T12:16:24.159Z,98622.22
2023-04-29T12:18:54.157Z,98619.16
2023-04-29T12:21:22.522Z,98617.66
2023-04-29T12:23:49.024Z,98619.06
2023-04-29T12:26:17.302Z,98621.94
2023-04-29T12:28:43.739Z,98618.34
2023-04-29T12:31:13.959Z,98618.81
2023-04-29T12:33:44.259Z,98625.84
2023-04-29T12:36:18.400Z,98621.78
2023-04-29T12:38:45.410Z,98621.25
2023-04-29T12:41:14.440Z,98632.47
2023-04-29T12:43:41.675Z,98628.78
2023-04-29T12:46:10.039Z,98635.56
2023-04-29T12:48:44.012Z,98633.69
2023-04-29T12:51:11.552Z,98638.03
2023-04-29T12:53:38.896Z,98639.88
2023-04-29T12:56:06.492Z,98644.38
2023-04-29T12:58:34.830Z,98657.44
2023-04-29T13:01:01.411Z,98657.03
2023-04-29T13:03:28.671Z,98654.56
2023-04-29T13:05:55.313Z,98661.31
2023-04-29T13:08:22.718Z,98658.84
2023-04-29T13:10:49.633Z,98652.13
2023-04-29T13:13:16.277Z,98658.88
2023-04-29T13:15:42.766Z,98660.69
2023-04-29T13:18:09.217Z,98654.56
2023-04-29T13:20:40.957Z,98652.72
2023-04-29T13:23:08.665Z,98655.38
2023-04-29T13:25:35.131Z,98659.84
2023-04-29T13:28:01.924Z,98649.78
2023-04-29T13:30:28.431Z,98658.34
2023-04-29T13:32:59.257Z,98660.31
2023-04-29T13:35:35.976Z,98655.03
2023-04-29T13:38:02.792Z,98648.66
2023-04-29T13:40:30.864Z,98655.69
2023-04-29T13:43:04.352Z,98665.03
2023-04-29T13:45:38.783Z,98659.31
2023-04-29T13:48:16.309Z,98659.91
2023-04-29T13:53:50.856Z,98658.59
2023-04-29T13:59:19.526Z,98662.50
2023-04-29T14:02:14.931Z,98661.75
2023-04-29T14:04:11.604Z,98660.44
2023-04-29T14:06:38.363Z,98662.94
2023-04-29T14:09:04.819Z,98669.47
2023-04-29T14:11:31.777Z,98667.03
2023-04-29T14:13:58.212Z,98675.16
2023-04-29T14:16:24.854Z,98668.25
2023-04-29T14:18:51.488Z,98674.75
2023-04-29T14:21:17.995Z,98683.88
2023-04-29T14:23:44.513Z,98682.25
2023-04-29T14:26:27.302Z,98684.88
2023-04-29T14:28:59.698Z,98689.19
2023-04-29T14:31:28.166Z,98690.38
2023-04-29T14:33:59.634Z,98684.28
2023-04-29T14:36:26.811Z,98686.13
2023-04-29T14:38:54.094Z,98687.34
2023-04-29T14:41:23.571Z,98681.06
2023-04-29T14:43:50.073Z,98683.53
2023-04-29T14:46:17.018Z,98683.97
2023-04-29T14:48:43.748Z,98680.81
2023-04-29T14:51:10.625Z,98686.38
2023-04-29T14:53:37.158Z,98687.47
2023-04-29T14:56:03.873Z,98687.34
2023-04-29T14:58:30.522Z,98691.44
2023-04-29T15:00:57.052Z,98691.44
2023-04-29T15:03:23.624Z,98692.06
2023-04-29T15:05:51.386Z,98691.28
2023-04-29T15:08:19.160Z,98691.28
2023-04-29T15:10:47.326Z,98689.66
2023-04-29T15:13:13.875Z,98697.41
2023-04-29T15:15:40.755Z,98695.00
2023-04-29T15:18:08.785Z,98697.63
2023-04-29T15:20:36.680Z,98694.41
2023-04-29T15:23:04.173Z,98679.31
2023-04-29T15:25:33.321Z,98679.03
2023-04-29T15:28:00.345Z,98677.91
2023-04-29T15:30:27.269Z,98688.50
2023-04-29T15:32:54.962Z,98683.81
2023-04-29T15:35:21.612Z,98681.31
2023-04-29T15:37:48.046Z,98685.22
2023-04-29T15:40:14.623Z,98686.75
2023-04-29T15:42:41.070Z,98684.50
2023-04-29T15:45:08.831Z,98690.28
2023-04-29T15:47:35.916Z,98688.97
2023-04-29T15:50:03.237Z,98687.97
2023-04-29T15:52:29.682Z,98683.25
2023-04-29T15:54:56.131Z,98693.13
2023-04-29T15:57:22.618Z,98691.91
2023-04-29T15:59:49.109Z,98702.34
2023-04-29T16:02:15.979Z,98705.84
2023-04-29T16:04:42.443Z,98701.34
2023-04-29T16:07:09.150Z,98704.47
2023-04-29T16:09:35.870Z,98693.28
2023-04-29T16:12:02.392Z,98698.56
2023-04-29T16:14:29.977Z,98694.50
2023-04-29T16:16:56.594Z,98698.94
2023-04-29T16:19:23.167Z,98703.28
2023-04-29T16:21:49.617Z,98687.75
2023-04-29T16:24:16.137Z,98695.03
2023-04-29T16:26:42.780Z,98693.63
2023-04-29T16:29:10.016Z,98702.25
2023-04-29T16:31:36.514Z,98705.94
2023-04-29T16:34:03.300Z,98707.16
2023-04-29T16:36:30.133Z,98705.88
2023-04-29T16:38:57.861Z,98700.50
2023-04-29T16:41:26.018Z,98704.19
2023-04-29T16:43:55.823Z,98702.63
2023-04-29T16:46:22.430Z,98698.31
2023-04-29T16:48:51.830Z,98699.56
2023-04-29T16:51:18.813Z,98695.47
2023-04-29T16:53:45.726Z,98695.31
2023-04-29T16:56:12.368Z,98691.06
2023-04-29T16:58:38.959Z,98695.09
2023-04-29T17:01:07.270Z,98699.81
2023-04-29T17:03:33.833Z,98703.50
2023-04-29T17:06:00.504Z,98707.56
2023-04-29T17:08:27.213Z,98703.09
2023-04-29T17:10:53.961Z,98709.41
2023-04-29T17:13:20.732Z,98704.09
2023-04-29T17:15:47.813Z,98707.75
2023-04-29T17:18:14.317Z,98713.66
2023-04-29T17:20:42.028Z,98710.41
2023-04-29T17:23:08.796Z,98707.34
2023-04-29T17:25:37.517Z,98712.06
2023-04-29T17:28:04.537Z,98713.63
2023-04-29T17:30:31.328Z,98707.31
2023-04-29T17:32:57.933Z,98713.81
2023-04-29T17:35:24.695Z,98712.81
2023-04-29T17:37:51.159Z,98719.91
2023-04-29T17:40:17.619Z,98717.84
2023-04-29T17:42:44.079Z,98721.09
2023-04-29T17:45:11.168Z,98724.56
2023-04-29T17:47:37.599Z,98725.94
2023-04-29T17:50:04.267Z,98728.81
2023-04-29T17:52:31.505Z,98732.91
2023-04-29T17:54:57.971Z,98728.41
2023-04-29T17:57:24.446Z,98726.53
2023-04-29T17:59:50.987Z,98727.75
2023-04-29T18:02:17.431Z,98727.19
2023-04-29T18:04:43.850Z,98735.94
2023-04-29T18:07:10.396Z,98735.94
2023-04-29T18:09:36.849Z,98740.59
2023-04-29T18:12:03.633Z,98745.06
2023-04-29T18:14:31.007Z,98746.91
2023-04-29T18:17:00.917Z,98752.53
2023-04-29T18:19:28.061Z,98749.69
2023-04-29T18:21:59.201Z,98743.47
2023-04-29T18:24:26.049Z,98751.84
2023-04-29T18:26:52.672Z,98748.16
2023-04-29T18:29:19.093Z,98758.97
2023-04-29T18:31:46.235Z,98762.63
2023-04-29T18:34:12.698Z,98770.50
2023-04-29T18:36:39.128Z,98767.22
2023-04-29T18:39:05.554Z,98762.56
2023-04-29T18:41:33.090Z,98766.63
2023-04-29T18:43:59.504Z,98762.28
2023-04-29T18:46:26.011Z,98767.16
2023-04-29T18:48:52.442Z,98770.00
2023-04-29T18:51:19.093Z,98775.22
2023-04-29T18:53:45.623Z,98779.53
2023-04-29T18:56:12.252Z,98778.75
2023-04-29T18:58:38.673Z,98773.00
2023-04-29T19:01:05.905Z,98775.06
2023-04-29T19:03:32.408Z,98779.25
2023-04-29T19:05:58.967Z,98783.75
2023-04-29T19:08:25.799Z,98781.91
2023-04-29T19:10:53.460Z,98778.28
2023-04-29T19:13:19.993Z,98786.34
2023-04-29T19:15:50.445Z,98792.63
2023-04-29T19:18:20.258Z,98794.66
2023-04-29T19:20:47.000Z,98795.63
2023-04-29T19:23:13.458Z,98796.78
2023-04-29T19:25:40.011Z,98807.78
2023-04-29T19:28:06.486Z,98818.97
2023-04-29T19:30:33.410Z,98812.13
2023-04-29T19:32:59.921Z,98808.22
2023-04-29T19:35:26.956Z,98816.41
2023-04-29T19:37:54.773Z,98819.25
2023-04-29T19:40:21.252Z,98823.72
2023-04-29T19:42:47.705Z,98816.16
2023-04-29T19:45:14.315Z,98818.22
2023-04-29T19:47:41.009Z,98813.28
2023-04-29T19:50:07.802Z,98812.66
2023-04-29T19:52:34.306Z,98813.09
2023-04-29T19:55:00.798Z,98812.03
2023-04-29T19:57:28.318Z,98811.03
2023-04-29T19:59:54.998Z,98819.16
2023-04-29T20:02:21.922Z,98816.28
2023-04-29T20:04:48.384Z,98819.25
2023-04-29T20:07:15.012Z,98819.59
2023-04-29T20:09:41.571Z,98816.75
2023-04-29T20:12:08.048Z,98822.63
2023-04-29T20:14:34.498Z,98816.69
2023-04-29T20:17:01.184Z,98825.31
2023-04-29T20:19:27.782Z,98821.81
2023-04-29T20:21:54.331Z,98819.38
2023-04-29T20:24:20.859Z,98824.44
2023-04-29T20:26:47.597Z,98822.50
2023-04-29T20:32:10.873Z,98828.59
2023-04-29T20:34:40.028Z,98830.41
2023-04-29T20:37:09.433Z,98836.06
2023-04-29T20:40:36.611Z,98833.16
2023-04-29T20:43:14.337Z,98837.13
2023-04-29T20:46:07.212Z,98842.59
2023-04-29T20:49:06.006Z,98832.59
2023-04-29T20:51:59.731Z,98832.72
2023-04-29T20:55:12.108Z,98836.41
2023-04-29T20:58:12.168Z,98841.94
2023-04-29T21:01:02.409Z,98848.72
2023-04-29T21:04:02.948Z,98843.78
2023-04-29T21:06:32.135Z,98843.28
2023-04-29T21:09:10.407Z,98852.16
2023-04-29T21:12:15.706Z,98858.66
2023-04-29T21:14:49.270Z,98855.97
2023-04-29T21:17:19.539Z,98860.84
2023-04-29T21:20:12.614Z,98853.00
2023-04-29T21:22:44.126Z,98859.66
2023-04-29T21:25:12.827Z,98859.22
2023-04-29T21:27:41.482Z,98859.28
2023-04-29T21:30:22.976Z,98862.00
2023-04-29T21:33:09.933Z,98863.44
2023-04-29T21:35:57.757Z,98864.34
2023-04-29T21:38:30.069Z,98864.00
2023-04-29T21:40:59.689Z,98862.16
2023-04-29T21:43:27.625Z,98855.97
2023-04-29T21:45:54.786Z,98864.56
2023-04-29T21:48:21.890Z,98862.38
2023-04-29T21:50:48.881Z,98863.56
2023-04-29T21:53:16.572Z,98863.28
2023-04-29T21:55:43.288Z,98859.94
2023-04-29T21:58:10.908Z,98860.28
2023-04-29T22:00:39.075Z,98867.91
2023-04-29T22:03:10.766Z,98863.44
2023-04-29T22:05:37.348Z,98858.59
2023-04-29T22:08:07.017Z,98862.38
2023-04-29T22:10:33.522Z,98863.84
2023-04-29T22:13:00.080Z,98862.84
2023-04-29T22:15:28.756Z,98866.31
2023-04-29T22:17:56.835Z,98863.84
2023-04-29T22:20:23.459Z,98857.47
2023-04-29T22:22:49.976Z,98865.72
2023-04-29T22:25:16.547Z,98873.50
2023-04-29T22:27:42.998Z,98860.38
2023-04-29T22:30:09.855Z,98867.84
2023-04-29T22:32:36.351Z,98862.03
2023-04-29T22:35:03.017Z,98859.47
2023-04-29T22:37:29.499Z,98872.47
2023-04-29T22:39:56.853Z,98866.28
2023-04-29T22:42:23.584Z,98861.09
2023-04-29T22:44:50.029Z,98861.09
2023-04-29T22:47:16.786Z,98853.56
2023-04-29T22:49:43.289Z,98858.28
2023-04-29T22:52:09.780Z,98857.66
2023-04-29T22:54:36.291Z,98864.88
2023-04-29T22:57:03.958Z,98869.72
2023-04-29T22:59:30.726Z,98868.84
2023-04-29T23:01:57.369Z,98877.16
2023-04-29T23:04:24.706Z,98876.69
2023-04-29T23:06:51.678Z,98880.97
2023-04-29T23:09:18.190Z,98877.06
2023-04-29T23:11:44.924Z,98872.56
2023-04-29T23:14:11.396Z,98872.56
2023-04-29T23:16:37.841Z,98876.94
2023-04-29T23:19:04.699Z,98879.78
2023-04-29T23:21:31.167Z,98876.59
2023-04-29T23:23:57.733Z,98875.78
2023-04-29T23:26:24.256Z,98877.88
2023-04-29T23:28:50.722Z,98879.34
2023-04-29T23:31:17.276Z,98884.88
2023-04-29T23:33:44.224Z,98876.13
2023-04-29T23:36:11.762Z,98889.22
2023-04-29T23:38:38.256Z,98883.69
2023-04-29T23:41:04.918Z,98886.34
2023-04-29T23:43:32.055Z,98882.13
2023-04-29T23:45:58.529Z,98890.34
2023-04-29T23:48:25.022Z,98893.81
2023-04-29T23:50:51.457Z,98887.41
2023-04-29T23:53:18.660Z,98893.66
2023-04-29T23:55:45.346Z,98889.34
2023-04-29T23:58:11.850Z,98893.53
